createdAt,value
2023-04-21T00:01:19.082Z,100776.02
2023-04-21T00:03:47.234Z,100777.56
2023-04-21T00:06:21.767Z,100773.80
2023-04-21T00:08:49.814Z,100773.14
2023-04-21T00:11:18.202Z,100771.79
2023-04-21T00:13:46.138Z,100768.37
2023-04-21T00:16:14.106Z,100770.77
2023-04-21T00:18:42.334Z,100766.67
2023-04-21T00:21:10.303Z,100766.52
2023-04-21T00:23:38.798Z,100763.27
2023-04-21T00:26:06.735Z,100763.28
2023-04-21T00:28:34.725Z,100763.98
2023-04-21T00:31:02.664Z,100764.66
2023-04-21T00:33:30.851Z,100768.95
2023-04-21T00:35:58.988Z,100761.42
2023-04-21T00:38:28.758Z,100761.95
2023-04-21T00:40:57.040Z,100761.96
2023-04-21T00:43:25.452Z,100763.52
2023-04-21T00:45:55.661Z,100764.02
2023-04-21T00:48:23.721Z,100759.27
2023-04-21T00:50:51.729Z,100764.04
2023-04-21T00:53:20.474Z,100765.23
2023-04-21T00:55:50.476Z,100763.86
2023-04-21T00:58:18.725Z,100763.70
2023-04-21T01:00:47.117Z,100759.11
2023-04-21T01:03:16.752Z,100756.71
2023-04-21T01:05:46.152Z,100757.21
2023-04-21T01:08:15.285Z,100758.75
2023-04-21T01:10:43.373Z,100754.99
2023-04-21T01:13:11.302Z,100753.80
2023-04-21T01:15:39.571Z,100753.63
2023-04-21T01:18:07.640Z,100753.13
2023-04-21T01:20:36.224Z,100753.63
2023-04-21T01:23:07.834Z,100752.27
2023-04-21T01:25:35.971Z,100751.94
2023-04-21T01:28:05.403Z,100752.11
2023-04-21T01:30:33.374Z,100752.11
2023-04-21T01:33:01.425Z,100751.27
2023-04-21T01:35:30.734Z,100749.71
2023-04-21T01:37:59.276Z,100751.27
2023-04-21T01:40:27.574Z,100748.52
2023-04-21T01:42:55.881Z,100751.77
2023-04-21T01:45:24.396Z,100749.20
2023-04-21T01:47:52.452Z,100752.96
2023-04-21T01:50:20.748Z,100752.29
2023-04-21T01:52:48.846Z,100755.18
2023-04-21T01:55:17.855Z,100754.49
2023-04-21T01:57:45.778Z,100754.84
2023-04-21T02:00:15.621Z,100753.47
2023-04-21T02:02:44.429Z,100754.50
2023-04-21T02:05:15.007Z,100753.46
2023-04-21T02:07:42.919Z,100753.45
2023-04-21T02:10:12.041Z,100757.73
2023-04-21T02:12:40.090Z,100756.54
2023-04-21T02:15:10.384Z,100751.41
2023-04-21T02:17:38.508Z,100749.89
2023-04-21T02:20:11.455Z,100747.98
2023-04-21T02:22:40.254Z,100749.52
2023-04-21T02:25:09.304Z,100751.06
2023-04-21T02:27:37.362Z,100748.48
2023-04-21T02:30:08.493Z,100749.35
2023-04-21T02:32:36.940Z,100753.27
2023-04-21T02:35:06.960Z,100758.89
2023-04-21T02:37:35.414Z,100758.20
2023-04-21T02:40:04.869Z,100755.47
2023-04-21T02:42:34.100Z,100755.29
2023-04-21T02:45:02.143Z,100750.66
2023-04-21T02:47:30.147Z,100748.77
2023-04-21T02:49:58.516Z,100748.77
2023-04-21T02:52:27.352Z,100746.91
2023-04-21T02:54:55.465Z,100744.50
2023-04-21T02:57:23.425Z,100745.52
2023-04-21T02:59:51.321Z,100744.16
2023-04-21T03:02:19.346Z,100743.63
2023-04-21T03:04:47.341Z,100744.65
2023-04-21T03:07:15.689Z,100744.65
2023-04-21T03:09:43.604Z,100741.57
2023-04-21T03:12:11.606Z,100744.81
2023-04-21T03:14:39.638Z,100741.40
2023-04-21T03:17:08.075Z,100741.56
2023-04-21T03:19:36.054Z,100744.79
2023-04-21T03:22:04.066Z,100743.59
2023-04-21T03:24:32.170Z,100740.02
2023-04-21T03:27:01.152Z,100740.16
2023-04-21T03:29:29.460Z,100742.04
2023-04-21T03:31:57.461Z,100743.58
2023-04-21T03:34:26.404Z,100741.02
2023-04-21T03:36:55.551Z,100743.39
2023-04-21T03:39:23.750Z,100743.73
2023-04-21T03:41:52.902Z,100743.23
2023-04-21T03:44:20.912Z,100746.47
2023-04-21T03:46:52.104Z,100748.70
2023-04-21T03:49:20.746Z,100750.39
2023-04-21T03:51:49.092Z,100752.10
2023-04-21T03:54:17.012Z,100755.01
2023-04-21T03:56:44.999Z,100755.17
2023-04-21T03:59:13.014Z,100755.02
2023-04-21T04:01:41.679Z,100761.84
2023-04-21T04:04:10.019Z,100765.42
2023-04-21T04:06:38.169Z,100763.90
2023-04-21T04:09:06.103Z,100767.48
2023-04-21T04:11:34.356Z,100765.29
2023-04-21T04:14:02.388Z,100764.80
2023-04-21T04:16:30.502Z,100764.19
2023-04-21T04:18:58.591Z,100762.02
2023-04-21T04:21:28.014Z,100767.26
2023-04-21T04:23:56.344Z,100764.94
2023-04-21T04:26:25.046Z,100758.58
2023-04-21T04:28:53.048Z,100764.17
2023-04-21T04:31:21.841Z,100766.83
2023-04-21T04:33:49.900Z,100767.37
2023-04-21T04:36:18.171Z,100767.97
2023-04-21T04:38:46.843Z,100765.77
2023-04-21T04:41:20.682Z,100766.77
2023-04-21T04:43:48.892Z,100768.95
2023-04-21T04:46:16.943Z,100773.89
2023-04-21T04:48:45.100Z,100774.27
2023-04-21T04:51:13.250Z,100773.55
2023-04-21T04:53:41.319Z,100767.45
2023-04-21T04:56:09.410Z,100763.52
2023-04-21T04:58:37.553Z,100763.90
2023-04-21T05:01:13.311Z,100762.86
2023-04-21T05:03:42.645Z,100766.30
2023-04-21T05:06:11.580Z,100768.91
2023-04-21T05:08:40.783Z,100769.35
2023-04-21T05:11:08.961Z,100766.99
2023-04-21T05:13:39.604Z,100765.09
2023-04-21T05:16:10.747Z,100766.90
2023-04-21T05:18:39.118Z,100767.00
2023-04-21T05:21:07.326Z,100762.85
2023-04-21T05:23:35.310Z,100761.70
2023-04-21T05:26:04.676Z,100759.86
2023-04-21T05:28:33.103Z,100762.80
2023-04-21T05:31:01.169Z,100762.18
2023-04-21T05:33:31.187Z,100765.09
2023-04-21T05:35:59.169Z,100767.48
2023-04-21T05:38:27.359Z,100762.70
2023-04-21T05:40:59.226Z,100766.00
2023-04-21T05:43:34.809Z,100768.65
2023-04-21T05:46:03.441Z,100768.15
2023-04-21T05:48:32.974Z,100771.12
2023-04-21T05:51:23.360Z,100767.61
2023-04-21T05:53:51.382Z,100765.00
2023-04-21T05:56:19.473Z,100759.27
2023-04-21T05:58:50.025Z,100757.43
2023-04-21T06:01:18.172Z,100755.86
2023-04-21T06:03:48.507Z,100754.77
2023-04-21T06:06:17.544Z,100752.92
2023-04-21T06:08:48.707Z,100753.23
2023-04-21T06:11:16.834Z,100750.03
2023-04-21T06:13:44.941Z,100752.20
2023-04-21T06:16:13.056Z,100746.86
2023-04-21T06:18:41.102Z,100750.55
2023-04-21T06:21:13.284Z,100753.01
2023-04-21T06:23:41.721Z,100756.07
2023-04-21T06:26:10.204Z,100752.16
2023-04-21T06:28:38.687Z,100751.84
2023-04-21T06:31:09.035Z,100750.46
2023-04-21T06:33:37.300Z,100749.98
2023-04-21T06:36:07.071Z,100746.27
2023-04-21T06:38:35.587Z,100743.84
2023-04-21T06:41:04.048Z,100741.38
2023-04-21T06:43:32.085Z,100738.95
2023-04-21T06:46:00.446Z,100737.49
2023-04-21T06:48:29.696Z,100746.40
2023-04-21T06:51:03.230Z,100744.45
2023-04-21T06:53:32.604Z,100743.73
2023-04-21T06:56:01.090Z,100744.05
2023-04-21T06:58:29.187Z,100744.59
2023-04-21T07:00:57.754Z,100742.80
2023-04-21T07:03:26.001Z,100740.08
2023-04-21T07:05:54.188Z,100737.92
2023-04-21T07:08:22.412Z,100738.64
2023-04-21T07:10:50.456Z,100736.05
2023-04-21T07:13:18.985Z,100739.63
2023-04-21T07:15:47.314Z,100734.86
2023-04-21T07:18:15.426Z,100738.10
2023-04-21T07:20:43.651Z,100741.55
2023-04-21T07:23:13.994Z,100738.60
2023-04-21T07:25:42.456Z,100738.09
2023-04-21T07:28:10.828Z,100738.46
2023-04-21T07:30:41.236Z,100736.77
2023-04-21T07:33:09.370Z,100737.65
2023-04-21T07:35:37.545Z,100737.34
2023-04-21T07:38:05.595Z,100740.86
2023-04-21T07:40:33.769Z,100738.98
2023-04-21T07:43:02.017Z,100736.79
2023-04-21T07:45:30.104Z,100734.83
2023-04-21T07:47:58.599Z,100732.39
2023-04-21T07:50:27.376Z,100729.96
2023-04-21T07:52:55.519Z,100727.67
2023-04-21T07:55:23.574Z,100723.27
2023-04-21T07:57:51.687Z,100720.37
2023-04-21T08:00:20.617Z,100718.44
2023-04-21T08:02:48.835Z,100723.35
2023-04-21T08:05:17.467Z,100717.54
2023-04-21T08:07:48.417Z,100712.14
2023-04-21T08:10:16.565Z,100714.85
2023-04-21T08:12:45.423Z,100713.51
2023-04-21T08:15:13.784Z,100710.10
2023-04-21T08:17:42.345Z,100705.09
2023-04-21T08:20:12.331Z,100708.31
2023-04-21T08:22:40.309Z,100707.95
2023-04-21T08:25:09.137Z,100706.14
2023-04-21T08:27:38.958Z,100701.20
2023-04-21T08:30:16.475Z,100700.98
2023-04-21T08:32:44.548Z,100703.30
2023-04-21T08:35:12.643Z,100704.04
2023-04-21T08:37:41.181Z,100698.23
2023-04-21T08:40:11.321Z,100697.83
2023-04-21T08:42:39.669Z,100695.92
2023-04-21T08:45:10.440Z,100698.38
2023-04-21T08:47:40.613Z,100700.48
2023-04-21T08:50:13.942Z,100701.92
2023-04-21T08:52:42.011Z,100702.80
2023-04-21T08:55:12.913Z,100695.60
2023-04-21T08:57:41.030Z,100698.60
2023-04-21T09:00:11.407Z,100699.98
2023-04-21T09:03:00.097Z,100692.23
2023-04-21T09:05:31.428Z,100689.59
2023-04-21T09:08:09.380Z,100687.77
2023-04-21T09:10:44.658Z,100688.99
2023-04-21T09:13:12.892Z,100690.23
2023-04-21T09:15:41.712Z,100684.64
2023-04-21T09:18:14.663Z,100689.40
2023-04-21T09:20:43.302Z,100686.23
2023-04-21T09:23:11.775Z,100682.19
2023-04-21T09:25:40.692Z,100673.64
2023-04-21T09:28:09.915Z,100674.45
2023-04-21T09:30:39.053Z,100673.05
2023-04-21T09:33:20.031Z,100666.27
2023-04-21T09:35:53.360Z,100667.77
2023-04-21T09:38:23.670Z,100671.78
2023-04-21T09:40:58.613Z,100671.83
2023-04-21T09:43:28.080Z,100668.14
2023-04-21T09:45:58.249Z,100665.38
2023-04-21T09:48:31.122Z,100664.02
2023-04-21T09:53:41.246Z,100664.27
2023-04-21T09:56:21.923Z,100653.98
2023-04-21T09:59:30.884Z,100652.95
2023-04-21T10:02:01.710Z,100653.91
2023-04-21T10:04:48.159Z,100650.76
2023-04-21T10:07:23.976Z,100647.73
2023-04-21T10:10:48.196Z,100636.10
2023-04-21T10:13:49.058Z,100632.21
2023-04-21T10:16:27.125Z,100630.21
2023-04-21T10:31:19.171Z,100629.41
2023-04-21T10:37:24.200Z,100618.27
2023-04-21T10:47:45.352Z,100607.77
2023-04-21T10:50:20.675Z,100604.01
2023-04-21T10:52:57.970Z,100598.14
2023-04-21T10:55:32.616Z,100593.65
2023-04-21T10:58:07.810Z,100593.59
2023-04-21T11:00:39.868Z,100592.86
2023-04-21T11:04:02.368Z,100593.16
2023-04-21T11:06:33.569Z,100585.61
2023-04-21T11:09:04.687Z,100584.13
2023-04-21T11:11:43.779Z,100581.21
2023-04-21T11:14:19.797Z,100580.48
2023-04-21T11:17:38.436Z,100576.14
2023-04-21T11:20:10.831Z,100569.91
2023-04-21T11:22:43.583Z,100562.97
2023-04-21T11:25:20.785Z,100557.26
2023-04-21T11:28:00.162Z,100557.83
2023-04-21T11:30:37.336Z,100556.18
2023-04-21T11:33:09.582Z,100561.93
2023-04-21T11:35:43.575Z,100557.92
2023-04-21T11:38:16.059Z,100552.84
2023-04-21T11:41:46.863Z,100550.75
2023-04-21T11:44:34.208Z,100546.31
2023-04-21T11:47:17.397Z,100551.33
2023-04-21T11:49:50.636Z,100549.75
2023-04-21T11:52:25.968Z,100538.61
2023-04-21T11:55:02.496Z,100543.92
2023-04-21T11:57:36.688Z,100540.70
2023-04-21T12:00:11.906Z,100536.92
2023-04-21T12:02:44.388Z,100537.88
2023-04-21T12:05:16.420Z,100533.40
2023-04-21T12:08:16.622Z,100531.96
2023-04-21T12:10:51.701Z,100529.36
2023-04-21T12:13:26.275Z,100523.87
2023-04-21T12:15:57.145Z,100515.96
2023-04-21T12:18:33.015Z,100516.45
2023-04-21T12:21:04.760Z,100515.88
2023-04-21T12:23:35.524Z,100516.73
2023-04-21T12:26:07.046Z,100512.71
2023-04-21T12:28:38.523Z,100511.23
2023-04-21T12:31:27.762Z,100503.91
2023-04-21T12:34:19.112Z,100498.66
2023-04-21T12:37:01.249Z,100495.29
2023-04-21T12:51:24.540Z,100486.24
2023-04-21T12:53:55.804Z,100485.46
2023-04-21T12:56:35.480Z,100486.13
2023-04-21T12:59:13.939Z,100484.33
2023-04-21T13:05:45.827Z,100478.14
2023-04-21T13:08:35.830Z,100475.75
2023-04-21T13:12:11.236Z,100478.80
2023-04-21T13:15:14.900Z,100469.89
2023-04-21T13:17:52.858Z,100466.14
2023-04-21T13:29:12.697Z,100449.80
2023-04-21T13:37:09.125Z,100436.91
2023-04-21T13:40:12.829Z,100433.90
2023-04-21T13:53:42.542Z,100422.95
2023-04-21T13:56:20.832Z,100420.02
2023-04-21T13:59:10.083Z,100422.67
2023-04-21T14:01:45.847Z,100406.87
2023-04-21T14:16:41.883Z,100401.27
2023-04-21T14:27:19.076Z,100393.14
2023-04-21T14:48:16.347Z,100373.10
2023-04-21T14:51:23.145Z,100368.66
2023-04-21T14:54:05.265Z,100371.01
2023-04-21T15:29:54.902Z,100341.51
2023-04-21T16:02:24.657Z,100332.65
2023-04-21T16:06:07.574Z,100332.31
2023-04-21T16:10:18.965Z,100331.32
2023-04-21T16:13:05.007Z,100327.06
2023-04-21T16:15:35.749Z,100328.39
2023-04-21T16:18:13.016Z,100328.38
2023-04-21T16:21:11.279Z,100323.96
2023-04-21T16:36:51.882Z,100321.66
2023-04-21T16:39:27.921Z,100322.05
2023-04-21T16:42:02.468Z,100318.52
2023-04-21T16:44:48.678Z,100319.17
2023-04-21T16:47:21.827Z,100316.02
2023-04-21T16:49:58.949Z,100317.11
2023-04-21T16:52:33.133Z,100312.46
2023-04-21T16:55:04.108Z,100309.88
2023-04-21T16:57:35.934Z,100313.01
2023-04-21T17:00:10.560Z,100316.45
2023-04-21T17:02:41.669Z,100319.02
2023-04-21T17:05:13.202Z,100315.37
2023-04-21T17:07:45.063Z,100322.13
2023-04-21T17:10:15.867Z,100320.85
2023-04-21T17:12:48.245Z,100320.77
2023-04-21T17:15:19.394Z,100321.77
2023-04-21T17:17:51.449Z,100318.64
2023-04-21T17:20:25.844Z,100319.14
2023-04-21T17:23:00.706Z,100319.42
2023-04-21T17:25:32.758Z,100319.21
2023-04-21T17:32:25.193Z,100315.96
2023-04-21T17:35:06.271Z,100319.15
2023-04-21T17:37:45.097Z,100314.19
2023-04-21T17:40:53.042Z,100315.70
2023-04-21T17:44:13.850Z,100318.39
2023-04-21T17:46:45.672Z,100321.34
2023-04-21T17:49:20.257Z,100322.36
2023-04-21T17:51:53.372Z,100322.91
2023-04-21T17:54:39.144Z,100321.98
2023-04-21T17:57:11.725Z,100329.89
2023-04-21T18:12:13.682Z,100330.65
2023-04-21T18:25:46.255Z,100329.80
2023-04-21T18:28:48.145Z,100333.87
2023-04-21T18:31:34.926Z,100334.07
2023-04-21T18:34:14.612Z,100329.88
2023-04-21T18:37:05.113Z,100331.78
2023-04-21T18:39:36.347Z,100335.20
2023-04-21T18:42:12.771Z,100331.95
2023-04-21T18:44:45.146Z,100333.80
2023-04-21T18:47:29.861Z,100337.01
2023-04-21T18:50:01.962Z,100337.99
2023-04-21T18:52:33.130Z,100336.02
2023-04-21T18:55:04.282Z,100333.85
2023-04-21T18:57:37.655Z,100342.31
2023-04-21T19:00:15.684Z,100338.40
2023-04-21T19:02:53.510Z,100333.77
2023-04-21T19:05:26.888Z,100332.76
2023-04-21T19:07:59.439Z,100333.65
2023-04-21T19:10:38.241Z,100331.31
2023-04-21T19:13:11.897Z,100336.23
2023-04-21T19:15:43.092Z,100330.08
2023-04-21T19:18:14.439Z,100328.53
2023-04-21T19:20:48.650Z,100329.59
2023-04-21T19:24:01.144Z,100328.41
2023-04-21T19:26:32.152Z,100327.59
2023-04-21T19:29:05.322Z,100329.61
2023-04-21T19:31:40.029Z,100327.88
2023-04-21T19:34:25.680Z,100329.11
2023-04-21T19:36:58.063Z,100322.65
2023-04-21T19:43:46.518Z,100326.65
2023-04-21T19:46:18.358Z,100324.77
2023-04-21T19:46:57.974Z,100323.06
2023-04-21T19:48:50.781Z,100335.08
2023-04-21T19:51:24.249Z,100331.65
2023-04-21T19:54:12.310Z,100330.11
2023-04-21T19:56:44.871Z,100330.64
2023-04-21T19:59:16.379Z,100332.20
2023-04-21T20:01:48.033Z,100334.75
2023-04-21T20:04:19.323Z,100337.77
2023-04-21T20:06:50.917Z,100335.17
2023-04-21T20:09:21.808Z,100338.34
2023-04-21T20:11:52.859Z,100339.50
2023-04-21T20:14:23.812Z,100338.57
2023-04-21T20:16:54.980Z,100340.74
2023-04-21T20:19:40.894Z,100342.21
2023-04-21T20:22:24.035Z,100338.91
2023-04-21T20:24:58.120Z,100338.48
2023-04-21T20:27:30.037Z,100338.28
2023-04-21T20:30:02.699Z,100339.05
2023-04-21T20:32:38.323Z,100336.98
2023-04-21T20:35:12.006Z,100340.29
2023-04-21T20:37:44.548Z,100337.29
2023-04-21T20:40:21.783Z,100341.29
2023-04-21T20:42:52.773Z,100338.91
2023-04-21T20:45:24.001Z,100338.80
2023-04-21T20:47:55.598Z,100338.30
2023-04-21T20:50:33.287Z,100344.00
2023-04-21T20:53:05.618Z,100340.27
2023-04-21T20:55:39.709Z,100341.48
2023-04-21T20:58:10.630Z,100341.15
2023-04-21T21:00:55.400Z,100341.02
2023-04-21T21:03:26.729Z,100346.35
2023-04-21T21:05:58.068Z,100341.08
2023-04-21T21:08:30.051Z,100343.16
2023-04-21T21:11:01.231Z,100342.85
2023-04-21T21:13:34.736Z,100342.19
2023-04-21T21:16:06.092Z,100339.16
2023-04-21T21:18:37.023Z,100338.17
2023-04-21T21:21:08.139Z,100340.77
2023-04-21T21:23:39.205Z,100334.97
2023-04-21T21:26:10.098Z,100334.14
2023-04-21T21:28:51.343Z,100333.46
2023-04-21T21:31:26.908Z,100332.11
2023-04-21T21:33:58.455Z,100329.77
2023-04-21T21:36:30.429Z,100331.64
2023-04-21T21:39:11.167Z,100331.14
2023-04-21T21:41:42.312Z,100330.67
2023-04-21T21:44:13.241Z,100329.17
2023-04-21T21:46:44.433Z,100330.27
2023-04-21T21:49:17.822Z,100334.42
2023-04-21T21:51:48.678Z,100335.48
2023-04-21T21:54:19.788Z,100337.06
2023-04-21T21:56:50.855Z,100339.69
2023-04-21T21:59:23.485Z,100334.45
2023-04-21T22:01:56.865Z,100338.41
2023-04-21T22:04:27.842Z,100337.45
2023-04-21T22:06:58.919Z,100336.48
2023-04-21T22:09:29.698Z,100335.01
2023-04-21T22:12:01.087Z,100332.47
2023-04-21T22:14:36.373Z,100332.72
2023-04-21T22:17:07.589Z,100335.52
2023-04-21T22:19:41.861Z,100334.22
2023-04-21T22:22:12.890Z,100334.30
2023-04-21T22:24:45.952Z,100331.41
2023-04-21T22:27:19.014Z,100331.12
2023-04-21T22:30:13.637Z,100323.13
2023-04-21T22:32:44.794Z,100325.25
2023-04-21T22:35:15.793Z,100325.65
2023-04-21T22:37:46.637Z,100328.30
2023-04-21T22:40:20.351Z,100339.69
2023-04-21T22:42:51.239Z,100340.08
2023-04-21T22:45:22.212Z,100337.23
2023-04-21T22:47:53.228Z,100337.50
2023-04-21T22:50:24.562Z,100336.24
2023-04-21T22:52:55.633Z,100334.26
2023-04-21T22:55:26.665Z,100334.83
2023-04-21T22:57:57.585Z,100339.35
2023-04-21T23:00:28.575Z,100337.03
2023-04-21T23:02:59.773Z,100335.74
2023-04-21T23:05:33.128Z,100337.30
2023-04-21T23:08:04.310Z,100335.65
2023-04-21T23:10:35.357Z,100332.95
2023-04-21T23:13:06.239Z,100331.48
2023-04-21T23:15:38.263Z,100331.04
2023-04-21T23:18:09.593Z,100333.15
2023-04-21T23:20:40.649Z,100330.98
2023-04-21T23:23:11.650Z,100328.30
2023-04-21T23:25:42.545Z,100326.63
2023-04-21T23:28:13.428Z,100329.08
2023-04-21T23:30:44.565Z,100328.11
2023-04-21T23:33:17.555Z,100328.35
2023-04-21T23:35:48.509Z,100332.52
2023-04-21T23:38:19.464Z,100335.45
2023-04-21T23:40:50.268Z,100337.38
2023-04-21T23:43:21.096Z,100338.12
2023-04-21T23:45:52.112Z,100337.83
2023-04-21T23:48:24.329Z,100339.42
2023-04-21T23:50:55.558Z,100338.44
2023-04-21T23:53:26.477Z,100338.47
2023-04-21T23:55:57.519Z,100338.50
2023-04-21T23:58:28.305Z,100334.79
